sensor_id;sensor_type;location;lat;lon;timestamp;pressure;altitude;pressure_sealevel;temperature;humidity
8069;BME280;4077;43.702;24.896;2023-05-11T00:02:06;99897.16;;;11.66;100.00
8069;BME280;4077;43.702;24.896;2023-05-11T00:04:32;99894.59;;;11.67;100.00
8069;BME280;4077;43.702;24.896;2023-05-11T00:06:57;99885.63;;;11.42;100.00
8069;BME280;4077;43.702;24.896;2023-05-11T00:09:23;99875.88;;;11.23;100.00
8069;BME280;4077;43.702;24.896;2023-05-11T00:11:51;99882.75;;;11.24;100.00
8069;BME280;4077;43.702;24.896;2023-05-11T00:14:16;99877.56;;;11.21;100.00
8069;BME280;4077;43.702;24.896;2023-05-11T00:16:42;99837.50;;;10.91;100.00
8069;BME280;4077;43.702;24.896;2023-05-11T00:19:07;99866.19;;;11.10;100.00
8069;BME280;4077;43.702;24.896;2023-05-11T00:21:33;99873.00;;;11.05;100.00
8069;BME280;4077;43.702;24.896;2023-05-11T00:23:58;99858.22;;;10.94;100.00
8069;BME280;4077;43.702;24.896;2023-05-11T00:26:24;99885.13;;;11.09;100.00
8069;BME280;4077;43.702;24.896;2023-05-11T00:28:51;99884.28;;;11.10;100.00
8069;BME280;4077;43.702;24.896;2023-05-11T00:31:21;99891.00;;;10.99;100.00
8069;BME280;4077;43.702;24.896;2023-05-11T00:33:46;99885.56;;;10.83;100.00
8069;BME280;4077;43.702;24.896;2023-05-11T00:36:17;99892.38;;;10.78;100.00
8069;BME280;4077;43.702;24.896;2023-05-11T00:38:43;99890.19;;;10.51;100.00
8069;BME280;4077;43.702;24.896;2023-05-11T00:41:08;99872.59;;;10.30;100.00
8069;BME280;4077;43.702;24.896;2023-05-11T00:43:34;99852.59;;;10.20;100.00
8069;BME280;4077;43.702;24.896;2023-05-11T00:46:00;99886.31;;;10.29;100.00
8069;BME280;4077;43.702;24.896;2023-05-11T00:48:26;99868.88;;;10.16;100.00
8069;BME280;4077;43.702;24.896;2023-05-11T00:50:52;99888.84;;;10.25;100.00
8069;BME280;4077;43.702;24.896;2023-05-11T00:53:18;99881.84;;;10.22;100.00
8069;BME280;4077;43.702;24.896;2023-05-11T00:55:43;99879.28;;;10.22;100.00
8069;BME280;4077;43.702;24.896;2023-05-11T00:58:09;99875.94;;;10.26;100.00
8069;BME280;4077;43.702;24.896;2023-05-11T01:00:35;99876.97;;;10.34;100.00
8069;BME280;4077;43.702;24.896;2023-05-11T01:03:01;99874.31;;;10.30;100.00
8069;BME280;4077;43.702;24.896;2023-05-11T01:05:33;99857.00;;;10.24;100.00
8069;BME280;4077;43.702;24.896;2023-05-11T01:13:21;99878.56;;;10.28;100.00
8069;BME280;4077;43.702;24.896;2023-05-11T01:15:54;99879.22;;;10.19;100.00
8069;BME280;4077;43.702;24.896;2023-05-11T01:18:27;99855.66;;;10.01;100.00
8069;BME280;4077;43.702;24.896;2023-05-11T01:20:59;99878.28;;;10.15;100.00
8069;BME280;4077;43.702;24.896;2023-05-11T01:28:55;99877.38;;;10.12;100.00
8069;BME280;4077;43.702;24.896;2023-05-11T01:31:25;99888.25;;;9.97;100.00
8069;BME280;4077;43.702;24.896;2023-05-11T01:33:57;99864.34;;;9.64;100.00
8069;BME280;4077;43.702;24.896;2023-05-11T01:36:31;99883.53;;;9.76;100.00
8069;BME280;4077;43.702;24.896;2023-05-11T01:39:03;99862.59;;;9.61;100.00
8069;BME280;4077;43.702;24.896;2023-05-11T01:41:32;99890.88;;;9.59;100.00
8069;BME280;4077;43.702;24.896;2023-05-11T01:44:03;99873.94;;;9.31;100.00
8069;BME280;4077;43.702;24.896;2023-05-11T01:46:32;99865.31;;;9.29;100.00
8069;BME280;4077;43.702;24.896;2023-05-11T01:49:00;99874.28;;;9.47;100.00
8069;BME280;4077;43.702;24.896;2023-05-11T01:51:30;99877.78;;;9.49;100.00
8069;BME280;4077;43.702;24.896;2023-05-11T01:53:58;99862.78;;;9.31;100.00
8069;BME280;4077;43.702;24.896;2023-05-11T01:56:25;99872.72;;;9.14;100.00
8069;BME280;4077;43.702;24.896;2023-05-11T01:58:53;99878.81;;;9.19;100.00
8069;BME280;4077;43.702;24.896;2023-05-11T02:01:20;99877.88;;;9.14;100.00
8069;BME280;4077;43.702;24.896;2023-05-11T02:03:47;99835.78;;;8.77;100.00
8069;BME280;4077;43.702;24.896;2023-05-11T02:06:14;99880.13;;;9.02;100.00
8069;BME280;4077;43.702;24.896;2023-05-11T02:08:43;99876.53;;;8.94;100.00
8069;BME280;4077;43.702;24.896;2023-05-11T02:11:10;99864.25;;;8.84;100.00
8069;BME280;4077;43.702;24.896;2023-05-11T02:13:37;99859.72;;;8.73;100.00
8069;BME280;4077;43.702;24.896;2023-05-11T02:16:07;99872.94;;;8.89;100.00
8069;BME280;4077;43.702;24.896;2023-05-11T02:18:33;99870.84;;;8.72;100.00
8069;BME280;4077;43.702;24.896;2023-05-11T02:21:00;99863.94;;;8.71;100.00
8069;BME280;4077;43.702;24.896;2023-05-11T02:23:29;99861.25;;;8.65;100.00
8069;BME280;4077;43.702;24.896;2023-05-11T02:25:55;99837.81;;;8.56;100.00
8069;BME280;4077;43.702;24.896;2023-05-11T02:28:22;99862.19;;;8.70;100.00
8069;BME280;4077;43.702;24.896;2023-05-11T02:30:49;99870.00;;;8.73;100.00
8069;BME280;4077;43.702;24.896;2023-05-11T02:33:20;99862.59;;;8.86;100.00
8069;BME280;4077;43.702;24.896;2023-05-11T02:35:50;99865.59;;;8.69;100.00
8069;BME280;4077;43.702;24.896;2023-05-11T02:38:19;99864.09;;;8.77;100.00
8069;BME280;4077;43.702;24.896;2023-05-11T02:40:48;99868.44;;;8.79;100.00
8069;BME280;4077;43.702;24.896;2023-05-11T02:43:21;99867.59;;;8.46;100.00
8069;BME280;4077;43.702;24.896;2023-05-11T02:45:51;99858.09;;;8.44;100.00
8069;BME280;4077;43.702;24.896;2023-05-11T02:48:26;99858.16;;;8.45;100.00
8069;BME280;4077;43.702;24.896;2023-05-11T02:50:54;99858.34;;;8.53;100.00
8069;BME280;4077;43.702;24.896;2023-05-11T02:53:24;99871.31;;;8.58;100.00
8069;BME280;4077;43.702;24.896;2023-05-11T02:55:53;99873.00;;;8.57;100.00
8069;BME280;4077;43.702;24.896;2023-05-11T02:58:19;99873.00;;;8.57;100.00
8069;BME280;4077;43.702;24.896;2023-05-11T03:00:45;99872.13;;;8.55;100.00
8069;BME280;4077;43.702;24.896;2023-05-11T03:03:11;99871.28;;;8.56;100.00
8069;BME280;4077;43.702;24.896;2023-05-11T03:05:36;99880.06;;;8.64;100.00
8069;BME280;4077;43.702;24.896;2023-05-11T03:08:02;99888.72;;;8.66;100.00
8069;BME280;4077;43.702;24.896;2023-05-11T03:10:28;99887.00;;;8.67;100.00
8069;BME280;4077;43.702;24.896;2023-05-11T03:12:54;99882.53;;;8.60;100.00
8069;BME280;4077;43.702;24.896;2023-05-11T03:15:21;99879.31;;;8.68;100.00
8069;BME280;4077;43.702;24.896;2023-05-11T03:17:48;99878.50;;;8.71;100.00
8069;BME280;4077;43.702;24.896;2023-05-11T03:20:15;99885.09;;;8.60;100.00
8069;BME280;4077;43.702;24.896;2023-05-11T03:22:42;99879.97;;;8.60;100.00
8069;BME280;4077;43.702;24.896;2023-05-11T03:25:08;99865.69;;;8.38;100.00
8069;BME280;4077;43.702;24.896;2023-05-11T03:27:39;99882.28;;;8.50;100.00
8069;BME280;4077;43.702;24.896;2023-05-11T03:30:10;99885.88;;;8.57;100.00
8069;BME280;4077;43.702;24.896;2023-05-11T03:32:36;99822.09;;;8.12;100.00
8069;BME280;4077;43.702;24.896;2023-05-11T03:35:01;99896.94;;;8.53;100.00
8069;BME280;4077;43.702;24.896;2023-05-11T03:37:28;99886.69;;;8.55;100.00
8069;BME280;4077;43.702;24.896;2023-05-11T03:39:57;99902.25;;;8.59;100.00
8069;BME280;4077;43.702;24.896;2023-05-11T03:42:24;99906.56;;;8.60;100.00
8069;BME280;4077;43.702;24.896;2023-05-11T03:44:52;99893.19;;;8.42;100.00
8069;BME280;4077;43.702;24.896;2023-05-11T03:47:25;99903.00;;;8.55;100.00
8069;BME280;4077;43.702;24.896;2023-05-11T03:49:51;99891.47;;;8.41;100.00
8069;BME280;4077;43.702;24.896;2023-05-11T03:52:18;99907.41;;;8.59;100.00
8069;BME280;4077;43.702;24.896;2023-05-11T03:54:44;99912.78;;;8.68;100.00
8069;BME280;4077;43.702;24.896;2023-05-11T03:57:10;99892.50;;;8.47;100.00
8069;BME280;4077;43.702;24.896;2023-05-11T03:59:36;99922.22;;;8.69;100.00
8069;BME280;4077;43.702;24.896;2023-05-11T04:02:03;99916.41;;;8.76;100.00
8069;BME280;4077;43.702;24.896;2023-05-11T04:04:30;99905.69;;;8.60;100.00
8069;BME280;4077;43.702;24.896;2023-05-11T04:06:56;99901.31;;;8.57;100.00
8069;BME280;4077;43.702;24.896;2023-05-11T04:09:22;99902.19;;;8.58;100.00
8069;BME280;4077;43.702;24.896;2023-05-11T04:11:47;99919.06;;;8.80;100.00
8069;BME280;4077;43.702;24.896;2023-05-11T04:14:12;99920.00;;;8.83;100.00
8069;BME280;4077;43.702;24.896;2023-05-11T04:16:38;99918.13;;;8.77;100.00
8069;BME280;4077;43.702;24.896;2023-05-11T04:19:03;99916.50;;;8.80;100.00
8069;BME280;4077;43.702;24.896;2023-05-11T04:21:30;99897.19;;;8.64;100.00
8069;BME280;4077;43.702;24.896;2023-05-11T04:23:56;99922.38;;;8.75;100.00
8069;BME280;4077;43.702;24.896;2023-05-11T04:26:22;99919.06;;;8.80;100.00
8069;BME280;4077;43.702;24.896;2023-05-11T04:28:47;99916.53;;;8.81;100.00
8069;BME280;4077;43.702;24.896;2023-05-11T04:31:13;99924.38;;;8.86;100.00
8069;BME280;4077;43.702;24.896;2023-05-11T04:33:38;99933.06;;;8.91;100.00
8069;BME280;4077;43.702;24.896;2023-05-11T04:36:04;99940.75;;;8.89;100.00
8069;BME280;4077;43.702;24.896;2023-05-11T04:38:30;99936.31;;;8.84;100.00
8069;BME280;4077;43.702;24.896;2023-05-11T04:40:55;99941.84;;;8.99;100.00
8069;BME280;4077;43.702;24.896;2023-05-11T04:43:21;99926.00;;;8.82;100.00
8069;BME280;4077;43.702;24.896;2023-05-11T04:45:50;99940.53;;;9.15;100.00
8069;BME280;4077;43.702;24.896;2023-05-11T04:48:16;99938.19;;;8.89;100.00
8069;BME280;4077;43.702;24.896;2023-05-11T04:50:41;99936.69;;;8.99;100.00
8069;BME280;4077;43.702;24.896;2023-05-11T04:53:07;99933.13;;;8.92;100.00
8069;BME280;4077;43.702;24.896;2023-05-11T04:55:33;99945.34;;;9.01;100.00
8069;BME280;4077;43.702;24.896;2023-05-11T04:57:58;99951.03;;;9.22;100.00
8069;BME280;4077;43.702;24.896;2023-05-11T05:00:24;99951.31;;;9.35;100.00
8069;BME280;4077;43.702;24.896;2023-05-11T05:02:49;99956.88;;;9.53;100.00
8069;BME280;4077;43.702;24.896;2023-05-11T05:05:16;99959.69;;;9.62;100.00
8069;BME280;4077;43.702;24.896;2023-05-11T05:07:41;99954.31;;;9.53;100.00
8069;BME280;4077;43.702;24.896;2023-05-11T05:10:07;99958.97;;;9.68;100.00
8069;BME280;4077;43.702;24.896;2023-05-11T05:12:36;99959.13;;;9.75;100.00
8069;BME280;4077;43.702;24.896;2023-05-11T05:15:02;99942.84;;;9.78;100.00
8069;BME280;4077;43.702;24.896;2023-05-11T05:17:28;99963.47;;;9.78;100.00
8069;BME280;4077;43.702;24.896;2023-05-11T05:19:53;99963.97;;;10.01;100.00
8069;BME280;4077;43.702;24.896;2023-05-11T05:22:19;99950.28;;;10.03;100.00
8069;BME280;4077;43.702;24.896;2023-05-11T05:24:44;99958.66;;;10.32;100.00
8069;BME280;4077;43.702;24.896;2023-05-11T05:27:10;99962.41;;;10.50;100.00
8069;BME280;4077;43.702;24.896;2023-05-11T05:29:35;99964.28;;;10.57;100.00
8069;BME280;4077;43.702;24.896;2023-05-11T05:32:00;99967.06;;;10.67;100.00
8069;BME280;4077;43.702;24.896;2023-05-11T05:34:26;99958.69;;;10.81;100.00
8069;BME280;4077;43.702;24.896;2023-05-11T05:36:51;99957.19;;;10.92;100.00
8069;BME280;4077;43.702;24.896;2023-05-11T05:39:17;99968.66;;;11.08;100.00
8069;BME280;4077;43.702;24.896;2023-05-11T05:41:42;99966.31;;;11.24;100.00
8069;BME280;4077;43.702;24.896;2023-05-11T05:44:08;99967.47;;;11.40;100.00
8069;BME280;4077;43.702;24.896;2023-05-11T05:46:33;99962.19;;;11.34;100.00
8069;BME280;4077;43.702;24.896;2023-05-11T05:48:59;99955.47;;;11.45;100.00
8069;BME280;4077;43.702;24.896;2023-05-11T05:51:25;99966.81;;;11.54;100.00
8069;BME280;4077;43.702;24.896;2023-05-11T05:53:50;99960.97;;;11.67;100.00
8069;BME280;4077;43.702;24.896;2023-05-11T05:56:15;99973.19;;;11.78;100.00
8069;BME280;4077;43.702;24.896;2023-05-11T05:58:41;99962.97;;;11.86;99.18
8069;BME280;4077;43.702;24.896;2023-05-11T06:01:07;99977.28;;;12.22;97.43
8069;BME280;4077;43.702;24.896;2023-05-11T06:03:33;99973.13;;;12.36;96.51
8069;BME280;4077;43.702;24.896;2023-05-11T06:05:58;99989.84;;;12.64;92.17
8069;BME280;4077;43.702;24.896;2023-05-11T06:08:26;99998.81;;;12.95;88.91
8069;BME280;4077;43.702;24.896;2023-05-11T06:10:51;99983.44;;;13.13;84.65
8069;BME280;4077;43.702;24.896;2023-05-11T06:13:17;99994.25;;;13.65;81.20
8069;BME280;4077;43.702;24.896;2023-05-11T06:15:42;100006.56;;;13.97;78.25
8069;BME280;4077;43.702;24.896;2023-05-11T06:18:08;100003.03;;;13.83;74.33
8069;BME280;4077;43.702;24.896;2023-05-11T06:20:33;99999.50;;;13.73;74.24
8069;BME280;4077;43.702;24.896;2023-05-11T06:22:59;99999.59;;;13.90;73.22
8069;BME280;4077;43.702;24.896;2023-05-11T06:25:24;99947.44;;;13.47;74.50
8069;BME280;4077;43.702;24.896;2023-05-11T06:27:50;99984.78;;;13.69;73.62
8069;BME280;4077;43.702;24.896;2023-05-11T06:30:15;100010.72;;;13.66;73.09
8069;BME280;4077;43.702;24.896;2023-05-11T06:32:41;99984.72;;;13.64;71.11
8069;BME280;4077;43.702;24.896;2023-05-11T06:35:06;99992.66;;;13.86;71.39
8069;BME280;4077;43.702;24.896;2023-05-11T06:37:32;100012.56;;;13.88;70.22
8069;BME280;4077;43.702;24.896;2023-05-11T06:39:58;100010.06;;;14.01;70.20
8069;BME280;4077;43.702;24.896;2023-05-11T06:42:23;100016.31;;;14.35;69.55
8069;BME280;4077;43.702;24.896;2023-05-11T06:44:49;100022.50;;;14.67;68.94
8069;BME280;4077;43.702;24.896;2023-05-11T06:47:14;100010.38;;;14.68;67.15
8069;BME280;4077;43.702;24.896;2023-05-11T06:49:40;100004.31;;;14.63;66.96
8069;BME280;4077;43.702;24.896;2023-05-11T06:52:07;100006.97;;;14.80;66.14
8069;BME280;4077;43.702;24.896;2023-05-11T06:54:33;99987.03;;;14.69;67.11
8069;BME280;4077;43.702;24.896;2023-05-11T06:56:59;100004.41;;;15.04;65.32
8069;BME280;4077;43.702;24.896;2023-05-11T06:59:25;100007.91;;;15.37;64.23
8069;BME280;4077;43.702;24.896;2023-05-11T07:01:51;100015.72;;;15.49;62.97
8069;BME280;4077;43.702;24.896;2023-05-11T07:04:16;100026.13;;;15.52;62.29
8069;BME280;4077;43.702;24.896;2023-05-11T07:06:42;100016.56;;;15.42;62.07
8069;BME280;4077;43.702;24.896;2023-05-11T07:09:07;100021.81;;;15.63;62.43
8069;BME280;4077;43.702;24.896;2023-05-11T07:11:34;100024.38;;;15.97;61.78
8069;BME280;4077;43.702;24.896;2023-05-11T07:13:59;100006.97;;;16.11;60.35
8069;BME280;4077;43.702;24.896;2023-05-11T07:16:25;100004.31;;;16.29;60.39
8069;BME280;4077;43.702;24.896;2023-05-11T07:18:50;100008.69;;;16.21;59.59
8069;BME280;4077;43.702;24.896;2023-05-11T07:21:16;100030.28;;;16.52;58.95
8069;BME280;4077;43.702;24.896;2023-05-11T07:23:41;100029.41;;;16.58;57.45
8069;BME280;4077;43.702;24.896;2023-05-11T07:26:08;100025.88;;;16.65;58.46
8069;BME280;4077;43.702;24.896;2023-05-11T07:28:37;100012.06;;;16.51;57.31
8069;BME280;4077;43.702;24.896;2023-05-11T07:31:03;100025.03;;;16.75;57.95
8069;BME280;4077;43.702;24.896;2023-05-11T07:33:29;100013.72;;;16.76;56.13
8069;BME280;4077;43.702;24.896;2023-05-11T07:35:55;100005.84;;;16.82;56.97
8069;BME280;4077;43.702;24.896;2023-05-11T07:38:20;100034.19;;;17.34;55.19
8069;BME280;4077;43.702;24.896;2023-05-11T07:40:45;100034.19;;;17.36;53.30
8069;BME280;4077;43.702;24.896;2023-05-11T07:43:11;100031.56;;;17.36;53.08
8069;BME280;4077;43.702;24.896;2023-05-11T07:45:38;100001.28;;;17.18;51.52
8069;BME280;4077;43.702;24.896;2023-05-11T07:48:03;100027.16;;;17.45;51.93
8069;BME280;4077;43.702;24.896;2023-05-11T07:50:29;100032.34;;;17.48;49.76
8069;BME280;4077;43.702;24.896;2023-05-11T07:52:55;100042.03;;;17.33;49.42
8069;BME280;4077;43.702;24.896;2023-05-11T07:55:20;100035.00;;;17.42;49.17
8069;BME280;4077;43.702;24.896;2023-05-11T07:57:50;100042.81;;;17.45;48.82
8069;BME280;4077;43.702;24.896;2023-05-11T08:00:17;100023.56;;;17.59;48.36
8069;BME280;4077;43.702;24.896;2023-05-11T08:02:43;100009.59;;;17.63;48.82
8069;BME280;4077;43.702;24.896;2023-05-11T08:05:08;100028.47;;;17.98;48.47
8069;BME280;4077;43.702;24.896;2023-05-11T08:07:34;100036.91;;;18.22;48.02
8069;BME280;4077;43.702;24.896;2023-05-11T08:09:59;99974.47;;;17.97;47.14
8069;BME280;4077;43.702;24.896;2023-05-11T08:12:25;100002.97;;;18.17;47.96
8069;BME280;4077;43.702;24.896;2023-05-11T08:14:50;100029.56;;;18.54;46.60
8069;BME280;4077;43.702;24.896;2023-05-11T08:17:16;100013.97;;;18.45;47.18
8069;BME280;4077;43.702;24.896;2023-05-11T08:19:41;100044.31;;;18.62;46.36
8069;BME280;4077;43.702;24.896;2023-05-11T08:22:06;100035.00;;;18.36;46.13
8069;BME280;4077;43.702;24.896;2023-05-11T08:24:32;100032.34;;;18.41;45.78
8069;BME280;4077;43.702;24.896;2023-05-11T08:26:57;100036.53;;;18.52;45.94
8069;BME280;4077;43.702;24.896;2023-05-11T08:29:23;100041.69;;;18.62;45.66
8069;BME280;4077;43.702;24.896;2023-05-11T08:31:51;100048.63;;;18.64;44.85
8069;BME280;4077;43.702;24.896;2023-05-11T08:34:17;100036.50;;;18.57;43.78
8069;BME280;4077;43.702;24.896;2023-05-11T08:36:43;100032.84;;;18.75;44.65
8069;BME280;4077;43.702;24.896;2023-05-11T08:39:08;100023.00;;;18.91;44.82
8069;BME280;4077;43.702;24.896;2023-05-11T08:41:34;100023.34;;;18.68;43.96
8069;BME280;4077;43.702;24.896;2023-05-11T08:44:00;100030.28;;;18.66;43.25
8069;BME280;4077;43.702;24.896;2023-05-11T08:46:28;100027.63;;;18.72;44.02
8069;BME280;4077;43.702;24.896;2023-05-11T08:48:55;100033.63;;;18.81;44.09
8069;BME280;4077;43.702;24.896;2023-05-11T08:51:22;100012.03;;;18.63;44.48
8069;BME280;4077;43.702;24.896;2023-05-11T08:53:47;100023.31;;;18.65;44.77
8069;BME280;4077;43.702;24.896;2023-05-11T08:56:14;100014.91;;;18.41;44.40
8069;BME280;4077;43.702;24.896;2023-05-11T08:58:40;100010.50;;;18.46;43.68
8069;BME280;4077;43.702;24.896;2023-05-11T09:01:09;100005.19;;;18.51;44.64
8069;BME280;4077;43.702;24.896;2023-05-11T09:03:38;99982.88;;;18.24;44.53
8069;BME280;4077;43.702;24.896;2023-05-11T09:06:06;100002.50;;;18.57;46.29
8069;BME280;4077;43.702;24.896;2023-05-11T09:08:33;100007.78;;;18.52;46.36
8069;BME280;4077;43.702;24.896;2023-05-11T09:11:00;100003.34;;;18.61;45.14
8069;BME280;4077;43.702;24.896;2023-05-11T09:13:28;100001.31;;;18.84;45.38
8069;BME280;4077;43.702;24.896;2023-05-11T09:15:54;100005.47;;;18.97;45.68
8069;BME280;4077;43.702;24.896;2023-05-11T09:18:19;100004.63;;;18.97;44.84
8069;BME280;4077;43.702;24.896;2023-05-11T09:20:45;100004.09;;;19.30;43.81
8069;BME280;4077;43.702;24.896;2023-05-11T09:23:15;100013.88;;;19.75;43.62
8069;BME280;4077;43.702;24.896;2023-05-11T09:25:40;100001.44;;;19.86;42.38
8069;BME280;4077;43.702;24.896;2023-05-11T09:28:10;100012.81;;;20.30;42.40
8069;BME280;4077;43.702;24.896;2023-05-11T09:30:36;100004.50;;;20.93;41.16
8069;BME280;4077;43.702;24.896;2023-05-11T09:33:02;100016.97;;;21.59;40.25
8069;BME280;4077;43.702;24.896;2023-05-11T09:35:32;100011.38;;;22.05;39.83
8069;BME280;4077;43.702;24.896;2023-05-11T09:38:06;100012.38;;;22.34;39.03
8069;BME280;4077;43.702;24.896;2023-05-11T09:40:49;100012.44;;;22.62;38.49
8069;BME280;4077;43.702;24.896;2023-05-11T09:45:44;100008.75;;;21.73;39.02
8069;BME280;4077;43.702;24.896;2023-05-11T09:48:24;99987.75;;;20.61;40.63
8069;BME280;4077;43.702;24.896;2023-05-11T09:51:02;99994.19;;;20.00;41.05
8069;BME280;4077;43.702;24.896;2023-05-11T09:53:33;99990.59;;;19.58;42.18
8069;BME280;4077;43.702;24.896;2023-05-11T09:55:59;99983.91;;;19.38;40.75
8069;BME280;4077;43.702;24.896;2023-05-11T09:58:25;99973.22;;;19.51;41.58
8069;BME280;4077;43.702;24.896;2023-05-11T10:00:52;99968.50;;;19.73;41.13
8069;BME280;4077;43.702;24.896;2023-05-11T10:03:20;99977.09;;;19.27;39.89
8069;BME280;4077;43.702;24.896;2023-05-11T10:05:57;99979.31;;;19.51;40.53
8069;BME280;4077;43.702;24.896;2023-05-11T10:08:27;99969.38;;;19.73;40.22
8069;BME280;4077;43.702;24.896;2023-05-11T10:10:55;99956.41;;;19.65;39.43
8069;BME280;4077;43.702;24.896;2023-05-11T10:13:21;99978.81;;;19.82;38.43
8069;BME280;4077;43.702;24.896;2023-05-11T10:15:50;99952.97;;;19.63;38.67
8069;BME280;4077;43.702;24.896;2023-05-11T10:18:16;99966.91;;;19.62;38.18
8069;BME280;4077;43.702;24.896;2023-05-11T10:20:41;99971.22;;;19.66;38.73
8069;BME280;4077;43.702;24.896;2023-05-11T10:23:09;99968.44;;;19.76;39.12
8069;BME280;4077;43.702;24.896;2023-05-11T10:25:35;99959.84;;;19.67;39.32
8069;BME280;4077;43.702;24.896;2023-05-11T10:28:01;99955.22;;;19.83;38.29
8069;BME280;4077;43.702;24.896;2023-05-11T10:30:26;99947.69;;;20.11;38.07
8069;BME280;4077;43.702;24.896;2023-05-11T10:32:54;99956.22;;;19.75;38.56
8069;BME280;4077;43.702;24.896;2023-05-11T10:35:20;99955.38;;;19.74;38.68
8069;BME280;4077;43.702;24.896;2023-05-11T10:37:46;99949.38;;;19.67;39.13
8069;BME280;4077;43.702;24.896;2023-05-11T10:40:12;99950.69;;;19.90;39.02
8069;BME280;4077;43.702;24.896;2023-05-11T10:45:48;99946.81;;;20.09;39.25
8069;BME280;4077;43.702;24.896;2023-05-11T10:51:45;99947.53;;;20.17;39.09
8069;BME280;4077;43.702;24.896;2023-05-11T11:02:11;99941.59;;;20.09;38.35
8069;BME280;4077;43.702;24.896;2023-05-11T11:04:46;99936.09;;;20.21;39.10
8069;BME280;4077;43.702;24.896;2023-05-11T11:07:13;99948.97;;;19.89;39.51
8069;BME280;4077;43.702;24.896;2023-05-11T11:12:15;99919.31;;;19.87;39.60
8069;BME280;4077;43.702;24.896;2023-05-11T11:14:58;99922.97;;;19.80;40.37
8069;BME280;4077;43.702;24.896;2023-05-11T11:17:28;99925.91;;;19.63;40.74
8069;BME280;4077;43.702;24.896;2023-05-11T11:19:57;99921.63;;;19.57;40.77
8069;BME280;4077;43.702;24.896;2023-05-11T11:25:07;99905.31;;;19.88;41.29
8069;BME280;4077;43.702;24.896;2023-05-11T11:30:30;99921.34;;;19.73;40.82
8069;BME280;4077;43.702;24.896;2023-05-11T11:40:38;99916.22;;;19.66;41.83
8069;BME280;4077;43.702;24.896;2023-05-11T11:43:17;99914.50;;;19.65;40.89
8069;BME280;4077;43.702;24.896;2023-05-11T11:48:20;99901.81;;;19.41;41.01
8069;BME280;4077;43.702;24.896;2023-05-11T11:50:46;99913.78;;;19.57;40.83
8069;BME280;4077;43.702;24.896;2023-05-11T11:58:57;99884.97;;;19.56;42.92
8069;BME280;4077;43.702;24.896;2023-05-11T12:01:27;99883.06;;;19.65;43.28
8069;BME280;4077;43.702;24.896;2023-05-11T12:04:12;99888.06;;;19.30;42.17
8069;BME280;4077;43.702;24.896;2023-05-11T12:06:43;99872.72;;;19.10;42.94
8069;BME280;4077;43.702;24.896;2023-05-11T12:09:17;99878.59;;;19.23;43.22
8069;BME280;4077;43.702;24.896;2023-05-11T12:11:45;99892.72;;;19.12;44.67
8069;BME280;4077;43.702;24.896;2023-05-11T12:14:11;99880.09;;;18.85;43.81
8069;BME280;4077;43.702;24.896;2023-05-11T12:16:37;99886.75;;;19.04;43.43
8069;BME280;4077;43.702;24.896;2023-05-11T12:19:03;99860.63;;;19.03;44.26
8069;BME280;4077;43.702;24.896;2023-05-11T12:21:29;99875.97;;;19.21;44.28
8069;BME280;4077;43.702;24.896;2023-05-11T12:24:01;99862.81;;;19.26;44.32
8069;BME280;4077;43.702;24.896;2023-05-11T12:26:29;99865.69;;;19.12;44.64
8069;BME280;4077;43.702;24.896;2023-05-11T12:31:36;99863.47;;;18.89;45.59
8069;BME280;4077;43.702;24.896;2023-05-11T12:34:02;99847.66;;;18.95;46.91
8069;BME280;4077;43.702;24.896;2023-05-11T12:36:28;99850.41;;;18.88;46.35
8069;BME280;4077;43.702;24.896;2023-05-11T12:38:54;99844.28;;;18.89;46.70
8069;BME280;4077;43.702;24.896;2023-05-11T12:41:21;99852.19;;;18.85;45.77
8069;BME280;4077;43.702;24.896;2023-05-11T12:43:52;99845.97;;;18.91;44.92
8069;BME280;4077;43.702;24.896;2023-05-11T12:46:18;99857.50;;;18.79;44.25
8069;BME280;4077;43.702;24.896;2023-05-11T12:48:48;99841.16;;;18.67;44.95
8069;BME280;4077;43.702;24.896;2023-05-11T12:54:34;99829.03;;;18.58;45.65
8069;BME280;4077;43.702;24.896;2023-05-11T12:57:03;99828.00;;;18.71;45.46
8069;BME280;4077;43.702;24.896;2023-05-11T12:59:33;99835.69;;;18.82;45.37
8069;BME280;4077;43.702;24.896;2023-05-11T13:02:20;99833.19;;;18.74;45.79
8069;BME280;4077;43.702;24.896;2023-05-11T13:04:46;99835.53;;;18.91;45.56
8069;BME280;4077;43.702;24.896;2023-05-11T13:07:15;99830.28;;;18.91;44.78
8069;BME280;4077;43.702;24.896;2023-05-11T13:09:55;99839.06;;;18.87;44.53
8069;BME280;4077;43.702;24.896;2023-05-11T13:12:20;99837.09;;;19.01;45.02
8069;BME280;4077;43.702;24.896;2023-05-11T13:14:47;99825.88;;;18.93;45.20
8069;BME280;4077;43.702;24.896;2023-05-11T13:17:27;99808.81;;;18.74;45.09
8069;BME280;4077;43.702;24.896;2023-05-11T13:19:54;99817.50;;;18.73;45.88
8069;BME280;4077;43.702;24.896;2023-05-11T13:22:19;99772.97;;;18.22;45.47
8069;BME280;4077;43.702;24.896;2023-05-11T13:24:45;99806.72;;;18.37;45.38
8069;BME280;4077;43.702;24.896;2023-05-11T13:27:10;99815.22;;;18.53;44.80
8069;BME280;4077;43.702;24.896;2023-05-11T13:29:36;99810.03;;;18.48;44.85
8069;BME280;4077;43.702;24.896;2023-05-11T13:32:01;99795.22;;;18.49;45.34
8069;BME280;4077;43.702;24.896;2023-05-11T13:34:26;99799.44;;;18.57;45.46
8069;BME280;4077;43.702;24.896;2023-05-11T13:36:52;99822.81;;;18.70;44.78
8069;BME280;4077;43.702;24.896;2023-05-11T13:39:17;99810.53;;;18.75;44.94
8069;BME280;4077;43.702;24.896;2023-05-11T13:41:44;99797.72;;;18.55;44.32
8069;BME280;4077;43.702;24.896;2023-05-11T13:44:09;99813.25;;;18.69;44.65
8069;BME280;4077;43.702;24.896;2023-05-11T13:46:35;99812.41;;;18.64;44.80
8069;BME280;4077;43.702;24.896;2023-05-11T13:49:00;99803.72;;;18.62;45.30
8069;BME280;4077;43.702;24.896;2023-05-11T13:51:28;99795.09;;;18.56;45.66
8069;BME280;4077;43.702;24.896;2023-05-11T13:53:53;99811.69;;;18.52;46.68
8069;BME280;4077;43.702;24.896;2023-05-11T13:56:18;99813.44;;;18.53;45.43
8069;BME280;4077;43.702;24.896;2023-05-11T13:58:45;99806.59;;;18.45;45.85
8069;BME280;4077;43.702;24.896;2023-05-11T14:01:10;99809.91;;;18.56;45.69
8069;BME280;4077;43.702;24.896;2023-05-11T14:03:38;99813.31;;;18.59;46.40
8069;BME280;4077;43.702;24.896;2023-05-11T14:06:03;99815.22;;;18.53;44.87